createdAt,value
2024-04-24T00:08:04.367Z,44.35
2024-04-24T00:09:04.402Z,44.59
2024-04-24T00:10:04.406Z,44.62
2024-04-24T00:11:04.366Z,44.60
2024-04-24T00:12:04.287Z,44.56
2024-04-24T00:13:04.664Z,44.54
2024-04-24T00:14:04.256Z,44.54
2024-04-24T00:15:04.345Z,44.55
2024-04-24T00:16:04.212Z,44.54
2024-04-24T00:17:04.236Z,44.53
2024-04-24T00:18:04.260Z,44.52
2024-04-24T00:19:04.635Z,44.50
2024-04-24T00:20:04.268Z,44.49
2024-04-24T00:21:04.195Z,44.47
2024-04-24T00:22:04.180Z,44.46
2024-04-24T00:23:04.223Z,44.43
2024-04-24T00:24:04.114Z,44.44
2024-04-24T00:25:04.554Z,44.40
2024-04-24T00:26:04.272Z,44.39
2024-04-24T00:27:04.124Z,44.38
2024-04-24T00:28:04.041Z,44.36
2024-04-24T00:29:04.092Z,44.33
2024-04-24T00:30:04.032Z,44.33
2024-04-24T00:31:04.514Z,44.34
2024-04-24T00:32:04.015Z,44.33
2024-04-24T00:33:04.052Z,44.32
2024-04-24T00:34:04.002Z,44.33
2024-04-24T00:35:04.022Z,44.30
2024-04-24T00:36:03.981Z,44.28
2024-04-24T00:37:04.341Z,44.26
2024-04-24T00:38:03.984Z,44.24
2024-04-24T00:39:04.009Z,44.22
2024-04-24T00:40:03.875Z,44.22
2024-04-24T00:41:03.992Z,44.21
2024-04-24T00:42:04.294Z,44.21
2024-04-24T00:43:03.929Z,44.23
2024-04-24T00:44:03.966Z,44.22
2024-04-24T00:45:03.845Z,44.26
2024-04-24T00:46:03.823Z,44.26
2024-04-24T00:47:04.063Z,44.28
2024-04-24T00:48:04.326Z,44.29
2024-04-24T00:49:03.798Z,44.29
2024-04-24T00:50:03.826Z,44.29
2024-04-24T00:51:03.730Z,44.28
2024-04-24T00:52:03.754Z,44.29
2024-04-24T00:53:04.218Z,44.28
2024-04-24T00:54:03.792Z,44.27
2024-04-24T00:55:03.698Z,44.24
2024-04-24T00:56:03.739Z,44.24
2024-04-24T00:57:03.673Z,44.25
2024-04-24T00:58:03.683Z,44.25
2024-04-24T00:59:04.187Z,44.20
2024-04-24T01:00:03.683Z,44.18
2024-04-24T01:01:03.688Z,44.16
2024-04-24T01:02:03.665Z,44.18
2024-04-24T01:03:03.648Z,44.18
2024-04-24T01:04:03.735Z,44.20
2024-04-24T01:05:04.087Z,44.24
2024-04-24T01:06:03.590Z,44.26
2024-04-24T01:07:03.550Z,44.29
2024-04-24T01:08:03.591Z,44.33
2024-04-24T01:09:03.588Z,44.37
2024-04-24T01:10:03.563Z,44.37
2024-04-24T01:11:03.984Z,44.39
2024-04-24T01:12:03.590Z,44.40
2024-04-24T01:13:03.474Z,44.40
2024-04-24T01:14:03.536Z,44.39
2024-04-24T01:15:03.457Z,44.41
2024-04-24T01:16:03.510Z,44.39
2024-04-24T01:17:04.027Z,44.37
2024-04-24T01:18:03.577Z,44.33
2024-04-24T01:19:03.410Z,44.31
2024-04-24T01:20:03.402Z,44.32
2024-04-24T01:21:03.402Z,44.30
2024-04-24T01:22:03.754Z,44.24
2024-04-24T01:23:03.352Z,44.23
2024-04-24T01:24:03.352Z,44.23
2024-04-24T01:25:03.314Z,44.24
2024-04-24T01:26:03.389Z,44.23
2024-04-24T01:27:03.275Z,44.23
2024-04-24T01:28:03.700Z,44.27
2024-04-24T01:29:03.320Z,44.27
2024-04-24T01:30:03.237Z,44.29
2024-04-24T01:31:03.332Z,44.28
2024-04-24T01:32:03.440Z,44.30
2024-04-24T01:33:03.708Z,44.31
2024-04-24T01:34:03.172Z,44.30
2024-04-24T01:35:03.270Z,44.31
2024-04-24T01:36:03.194Z,44.30
2024-04-24T01:37:03.254Z,44.28
2024-04-24T01:38:03.595Z,44.28
2024-04-24T01:39:03.133Z,44.25
2024-04-24T01:40:03.127Z,44.22
2024-04-24T01:41:03.175Z,44.22
2024-04-24T01:42:03.107Z,44.21
2024-04-24T01:43:03.111Z,44.22
2024-04-24T01:44:03.630Z,44.22
2024-04-24T01:45:03.065Z,44.22
2024-04-24T01:46:03.088Z,44.24
2024-04-24T01:47:03.093Z,44.24
2024-04-24T01:48:03.111Z,44.25
2024-04-24T01:49:03.449Z,44.24
2024-04-24T01:50:03.033Z,44.26
2024-04-24T01:51:02.970Z,44.28
2024-04-24T01:52:03.025Z,44.28
2024-04-24T01:53:02.972Z,44.29
2024-04-24T01:54:03.356Z,44.30
2024-04-24T01:55:02.946Z,44.28
2024-04-24T01:56:03.002Z,44.27
2024-04-24T01:57:02.912Z,44.27
2024-04-24T01:58:02.908Z,44.27
2024-04-24T01:59:03.450Z,44.26
2024-04-24T02:00:02.941Z,44.27
2024-04-24T02:01:02.965Z,44.27
2024-04-24T02:02:02.844Z,44.27
2024-04-24T02:03:02.875Z,44.28
2024-04-24T02:04:03.945Z,44.28
2024-04-24T02:05:02.947Z,44.28
2024-04-24T02:06:02.830Z,44.28
2024-04-24T02:07:02.785Z,44.27
2024-04-24T02:08:02.771Z,44.28
2024-04-24T02:09:02.786Z,44.29
2024-04-24T02:10:03.224Z,44.30
2024-04-24T02:11:02.766Z,44.30
2024-04-24T02:12:10.300Z,44.32
2024-04-24T02:13:04.193Z,44.33
2024-04-24T02:14:02.698Z,44.34
2024-04-24T02:15:02.735Z,44.35
2024-04-24T02:16:03.092Z,44.33
2024-04-24T02:17:02.663Z,44.35
2024-04-24T02:18:02.704Z,44.33
2024-04-24T02:19:02.645Z,44.34
2024-04-24T02:20:02.650Z,44.34
2024-04-24T02:21:02.598Z,44.33
2024-04-24T02:22:02.986Z,44.33
2024-04-24T02:23:02.649Z,44.34
2024-04-24T02:24:02.554Z,44.37
2024-04-24T02:25:02.535Z,44.36
2024-04-24T02:26:02.568Z,44.35
2024-04-24T02:27:02.615Z,44.36
2024-04-24T02:28:02.988Z,44.35
2024-04-24T02:29:02.514Z,44.37
2024-04-24T02:30:02.511Z,44.35
2024-04-24T02:31:02.460Z,44.36
2024-04-24T02:32:02.624Z,44.35
2024-04-24T02:33:03.052Z,44.36
2024-04-24T02:34:02.410Z,44.37
2024-04-24T02:35:02.462Z,44.35
2024-04-24T02:36:02.388Z,44.37
2024-04-24T02:37:02.448Z,44.37
2024-04-24T02:38:02.957Z,44.38
2024-04-24T02:39:02.328Z,44.37
2024-04-24T02:40:02.359Z,44.36
2024-04-24T02:41:02.375Z,44.35
2024-04-24T02:42:02.326Z,44.37
2024-04-24T02:43:02.757Z,44.38
2024-04-24T02:44:02.325Z,44.39
2024-04-24T02:45:02.275Z,44.40
2024-04-24T02:46:02.270Z,44.41
2024-04-24T02:47:02.289Z,44.42
2024-04-24T02:48:02.817Z,44.43
2024-04-24T02:49:02.226Z,44.43
2024-04-24T02:50:02.250Z,44.43
2024-04-24T02:51:02.181Z,44.44
2024-04-24T02:52:02.213Z,44.44
2024-04-24T02:53:02.243Z,44.43
2024-04-24T02:54:02.552Z,44.44
2024-04-24T02:55:02.200Z,44.43
2024-04-24T02:56:02.143Z,44.43
2024-04-24T02:57:02.126Z,44.43
2024-04-24T02:58:02.168Z,44.43
2024-04-24T02:59:02.515Z,44.43
2024-04-24T03:00:02.066Z,44.45
2024-04-24T03:01:02.147Z,44.43
2024-04-24T03:02:02.139Z,44.44
2024-04-24T03:03:02.159Z,44.43
2024-04-24T03:04:02.131Z,44.44
2024-04-24T03:05:02.563Z,44.41
2024-04-24T03:06:02.028Z,44.38
2024-04-24T03:07:01.997Z,44.38
2024-04-24T03:08:01.990Z,44.39
2024-04-24T03:09:01.957Z,44.38
2024-04-24T03:10:01.983Z,44.37
2024-04-24T03:11:02.475Z,44.36
2024-04-24T03:12:02.032Z,44.36
2024-04-24T03:13:01.922Z,44.36
2024-04-24T03:14:02.054Z,44.34
2024-04-24T03:15:01.896Z,44.34
2024-04-24T03:16:01.899Z,44.32
2024-04-24T03:17:02.396Z,44.28
2024-04-24T03:18:02.023Z,44.24
2024-04-24T03:19:01.841Z,44.25
2024-04-24T03:20:01.869Z,44.27
2024-04-24T03:21:01.838Z,44.30
2024-04-24T03:22:01.816Z,44.31
2024-04-24T03:23:02.289Z,44.29
2024-04-24T03:24:01.826Z,44.31
2024-04-24T03:25:01.810Z,44.27
2024-04-24T03:26:01.787Z,44.27
2024-04-24T03:27:01.714Z,44.27
2024-04-24T03:28:01.747Z,44.29
2024-04-24T03:29:02.247Z,44.29
2024-04-24T03:30:01.738Z,44.30
2024-04-24T03:31:01.674Z,44.33
2024-04-24T03:32:01.775Z,44.32
2024-04-24T03:33:02.035Z,44.35
2024-04-24T03:34:01.660Z,44.38
2024-04-24T03:35:02.120Z,44.38
2024-04-24T03:36:01.623Z,44.41
2024-04-24T03:37:01.652Z,44.42
2024-04-24T03:38:01.703Z,44.43
2024-04-24T03:39:01.588Z,44.45
2024-04-24T03:40:01.570Z,44.43
2024-04-24T03:41:02.027Z,44.41
2024-04-24T03:42:01.539Z,44.40
2024-04-24T03:43:01.550Z,44.36
2024-04-24T03:44:01.589Z,44.37
2024-04-24T03:45:01.517Z,44.34
2024-04-24T03:46:01.496Z,44.33
2024-04-24T03:47:01.944Z,44.33
2024-04-24T03:48:01.618Z,44.36
2024-04-24T03:49:02.160Z,44.36
2024-04-24T03:50:01.471Z,44.35
2024-04-24T03:51:01.397Z,44.36
2024-04-24T03:52:01.428Z,44.37
2024-04-24T03:53:01.863Z,44.36
2024-04-24T03:54:01.405Z,44.36
2024-04-24T03:55:01.376Z,44.37
2024-04-24T03:56:01.396Z,44.33
2024-04-24T03:57:01.342Z,44.32
2024-04-24T03:58:01.306Z,44.28
2024-04-24T03:59:01.711Z,44.26
2024-04-24T04:00:01.362Z,44.24
2024-04-24T04:01:01.313Z,44.18
2024-04-24T04:02:01.277Z,44.18
2024-04-24T04:03:01.374Z,44.21
2024-04-24T04:04:03.465Z,44.25
2024-04-24T04:05:01.317Z,44.28
2024-04-24T04:06:01.391Z,44.29
2024-04-24T04:07:01.184Z,44.30
2024-04-24T04:08:01.259Z,44.30
2024-04-24T04:09:01.593Z,44.29
2024-04-24T04:10:01.170Z,44.25
2024-04-24T04:11:01.193Z,44.22
2024-04-24T04:12:01.309Z,44.15
2024-04-24T04:13:01.176Z,44.09
2024-04-24T04:14:01.125Z,44.06
2024-04-24T04:15:01.555Z,44.04
2024-04-24T04:16:01.155Z,44.03
2024-04-24T04:17:01.136Z,43.97
2024-04-24T04:18:01.235Z,43.90
2024-04-24T04:19:01.055Z,43.87
2024-04-24T04:20:01.455Z,43.85
2024-04-24T04:21:01.016Z,43.82
2024-04-24T04:22:01.101Z,43.81
2024-04-24T04:23:01.078Z,43.78
2024-04-24T04:24:01.016Z,43.75
2024-04-24T04:25:00.967Z,43.71
2024-04-24T04:26:01.409Z,43.66
2024-04-24T04:27:00.975Z,43.61
2024-04-24T04:28:00.954Z,43.54
2024-04-24T04:29:00.947Z,43.45
2024-04-24T04:30:00.893Z,43.38
2024-04-24T04:31:01.397Z,43.35
2024-04-24T04:32:00.974Z,43.26
2024-04-24T04:33:00.935Z,43.21
2024-04-24T04:34:00.957Z,43.16
2024-04-24T04:35:00.876Z,43.20
2024-04-24T04:36:00.872Z,43.24
2024-04-24T04:37:01.243Z,43.27
2024-04-24T04:38:00.842Z,43.28
2024-04-24T04:39:00.891Z,43.28
2024-04-24T04:40:00.784Z,43.31
2024-04-24T04:41:00.814Z,43.32
2024-04-24T04:42:02.203Z,43.35
2024-04-24T04:43:00.724Z,43.36
2024-04-24T04:44:00.840Z,43.41
2024-04-24T04:45:00.726Z,43.44
2024-04-24T04:46:00.670Z,43.48
2024-04-24T04:47:01.145Z,43.49
2024-04-24T04:48:01.134Z,43.50
2024-04-24T04:49:00.768Z,43.48
2024-04-24T04:50:00.809Z,43.45
2024-04-24T04:51:00.620Z,43.41
2024-04-24T04:52:00.627Z,43.38
2024-04-24T04:53:01.223Z,43.33
2024-04-24T04:54:00.618Z,43.30
2024-04-24T04:55:00.673Z,43.24
2024-04-24T04:56:00.577Z,43.18
2024-04-24T04:57:00.587Z,43.16
2024-04-24T04:58:00.557Z,43.06
2024-04-24T04:59:00.986Z,43.02
2024-04-24T05:00:00.606Z,42.98
2024-04-24T05:01:00.588Z,42.97
2024-04-24T05:02:00.522Z,42.97
2024-04-24T05:03:00.568Z,42.94
2024-04-24T05:04:00.952Z,42.93
2024-04-24T05:05:00.706Z,42.92
2024-04-24T05:06:00.429Z,42.92
2024-04-24T05:07:00.434Z,42.92
2024-04-24T05:08:00.563Z,42.88
2024-04-24T05:09:00.421Z,42.81
2024-04-24T05:10:00.770Z,42.74
2024-04-24T05:11:00.488Z,42.67
2024-04-24T05:12:00.540Z,42.63
2024-04-24T05:13:00.324Z,42.64
2024-04-24T05:14:00.375Z,42.62
2024-04-24T05:15:00.355Z,42.61
2024-04-24T05:16:00.782Z,42.59
2024-04-24T05:17:00.529Z,42.58
2024-04-24T05:18:00.553Z,42.59
2024-04-24T05:19:00.312Z,42.57
2024-04-24T05:20:00.465Z,42.58
2024-04-24T05:21:00.637Z,42.58
2024-04-24T05:22:00.232Z,42.53
2024-04-24T05:23:00.255Z,42.51
2024-04-24T05:24:00.269Z,42.48
2024-04-24T05:25:00.259Z,42.47
2024-04-24T05:26:01.260Z,42.46
2024-04-24T05:27:00.606Z,42.44
2024-04-24T05:28:00.241Z,42.42
2024-04-24T05:29:00.159Z,42.42
2024-04-24T05:30:00.171Z,42.45
2024-04-24T05:31:00.120Z,42.45
2024-04-24T05:32:00.544Z,42.46
2024-04-24T05:33:00.249Z,42.44
2024-04-24T05:34:00.184Z,42.40
2024-04-24T05:35:00.191Z,42.35
2024-04-24T05:36:00.050Z,42.30
2024-04-24T05:37:00.017Z,42.22
2024-04-24T05:38:00.445Z,42.14
2024-04-24T05:39:00.012Z,42.07
2024-04-24T05:40:00.023Z,41.98
2024-04-24T05:41:00.083Z,41.92
2024-04-24T05:42:00.894Z,41.88
2024-04-24T05:42:59.938Z,41.84
2024-04-24T05:44:00.453Z,41.80
2024-04-24T05:44:59.986Z,41.78
2024-04-24T05:45:59.932Z,41.75
2024-04-24T05:46:59.905Z,41.70
2024-04-24T05:47:59.925Z,41.67
2024-04-24T05:48:59.911Z,41.64
2024-04-24T05:50:00.379Z,41.60
2024-04-24T05:50:59.904Z,41.57
2024-04-24T05:52:01.217Z,41.54
2024-04-24T05:52:59.834Z,41.47
2024-04-24T05:53:59.797Z,41.43
2024-04-24T05:55:00.324Z,41.40
2024-04-24T05:55:59.887Z,41.34
2024-04-24T05:56:59.802Z,41.30
2024-04-24T05:57:59.742Z,41.27
2024-04-24T05:58:59.743Z,41.25
2024-04-24T05:59:59.728Z,41.22
2024-04-24T06:01:01.225Z,41.21
2024-04-24T06:01:59.737Z,41.23
2024-04-24T06:02:59.796Z,41.24
2024-04-24T06:04:00.615Z,41.25
2024-04-24T06:05:00.667Z,41.24
2024-04-24T06:05:59.737Z,41.26
2024-04-24T06:07:00.063Z,41.27
2024-04-24T06:07:59.597Z,41.27
2024-04-24T06:08:59.599Z,41.24
2024-04-24T06:09:59.590Z,41.20
2024-04-24T06:10:59.677Z,41.13
2024-04-24T06:11:59.656Z,41.05
2024-04-24T06:12:59.947Z,40.96
2024-04-24T06:14:00.597Z,40.88
2024-04-24T06:14:59.536Z,40.81
2024-04-24T06:15:59.543Z,40.76
2024-04-24T06:16:59.552Z,40.73
2024-04-24T06:18:00.048Z,40.73
2024-04-24T06:18:59.565Z,40.75
2024-04-24T06:19:59.473Z,40.76
2024-04-24T06:20:59.457Z,40.72
2024-04-24T06:21:59.486Z,40.72
2024-04-24T06:23:00.193Z,40.70
2024-04-24T06:23:59.451Z,40.63
2024-04-24T06:24:59.385Z,40.51
2024-04-24T06:25:59.387Z,40.45
2024-04-24T06:26:59.391Z,40.37
2024-04-24T06:28:00.314Z,40.28
2024-04-24T06:28:59.781Z,40.27
2024-04-24T06:30:00.291Z,40.23
2024-04-24T06:30:59.339Z,40.16
2024-04-24T06:31:59.370Z,40.09
2024-04-24T06:32:59.401Z,39.97
2024-04-24T06:33:59.734Z,39.89
2024-04-24T06:34:59.279Z,39.83
2024-04-24T06:35:59.270Z,39.78
2024-04-24T06:37:00.204Z,39.76
2024-04-24T06:37:59.293Z,39.71
2024-04-24T06:38:59.258Z,39.67
2024-04-24T06:39:59.225Z,39.61
2024-04-24T06:40:59.209Z,39.55
2024-04-24T06:41:59.175Z,39.46
2024-04-24T06:42:59.180Z,39.36
2024-04-24T06:44:00.193Z,39.30
2024-04-24T06:44:59.546Z,39.25
2024-04-24T06:45:59.111Z,39.19
2024-04-24T06:46:59.191Z,39.18
2024-04-24T06:47:59.173Z,39.10
2024-04-24T06:48:59.115Z,39.00
2024-04-24T06:49:59.114Z,38.90
2024-04-24T06:50:59.498Z,38.79
2024-04-24T06:51:59.103Z,38.64
2024-04-24T06:52:59.063Z,38.50
2024-04-24T06:53:59.008Z,38.43
2024-04-24T06:54:59.011Z,38.33
2024-04-24T06:55:59.442Z,38.26
2024-04-24T06:56:58.990Z,38.20
2024-04-24T06:58:00.829Z,38.13
2024-04-24T06:58:58.990Z,38.08
2024-04-24T06:59:58.926Z,38.03
2024-04-24T07:00:59.373Z,38.01
2024-04-24T07:01:59.077Z,38.00
2024-04-24T07:02:58.898Z,37.95
2024-04-24T07:03:58.924Z,37.90
2024-04-24T07:04:58.873Z,37.83
2024-04-24T07:05:59.339Z,37.74
2024-04-24T07:06:58.916Z,37.67
2024-04-24T07:07:58.923Z,37.60
2024-04-24T07:08:58.879Z,37.46
2024-04-24T07:09:58.795Z,37.37
2024-04-24T07:10:59.243Z,37.30
2024-04-24T07:11:58.896Z,37.21
2024-04-24T07:12:58.824Z,37.14
2024-04-24T07:13:58.852Z,37.20
2024-04-24T07:14:58.739Z,37.29
2024-04-24T07:15:59.114Z,37.36
2024-04-24T07:16:58.783Z,37.44
2024-04-24T07:17:58.829Z,37.48
2024-04-24T07:18:58.867Z,37.54
2024-04-24T07:19:58.692Z,37.63
2024-04-24T07:20:58.646Z,37.72
2024-04-24T07:21:59.097Z,37.83
2024-04-24T07:22:58.651Z,37.96
2024-04-24T07:23:58.725Z,38.11
2024-04-24T07:24:58.593Z,38.33
2024-04-24T07:25:58.658Z,38.53
2024-04-24T07:26:58.616Z,38.64
2024-04-24T07:27:59.019Z,38.70
2024-04-24T07:28:58.611Z,38.67
2024-04-24T07:29:58.658Z,38.65
2024-04-24T07:30:58.542Z,38.59
2024-04-24T07:31:58.553Z,38.52
2024-04-24T07:32:59.905Z,38.46
2024-04-24T07:33:58.584Z,38.40
2024-04-24T07:34:58.558Z,38.36
2024-04-24T07:35:58.490Z,38.48
2024-04-24T07:36:58.481Z,38.62
2024-04-24T07:37:58.857Z,38.84
2024-04-24T07:38:58.452Z,39.04
2024-04-24T07:39:58.559Z,39.20
2024-04-24T07:40:58.388Z,39.36
2024-04-24T07:41:58.380Z,39.47
2024-04-24T07:42:58.371Z,39.59
2024-04-24T07:43:58.818Z,39.66
2024-04-24T07:44:58.414Z,39.69
2024-04-24T07:45:58.344Z,39.72
2024-04-24T07:47:01.568Z,39.66
2024-04-24T07:47:59.926Z,39.50
2024-04-24T07:48:58.786Z,39.23
2024-04-24T07:49:58.332Z,38.89
2024-04-24T07:50:58.311Z,38.55
2024-04-24T07:51:58.284Z,38.26
2024-04-24T07:52:58.253Z,38.01
2024-04-24T07:53:58.225Z,37.83
2024-04-24T07:54:58.254Z,37.68
2024-04-24T07:55:58.210Z,37.60
2024-04-24T07:56:58.213Z,37.55
2024-04-24T07:57:58.173Z,37.61
2024-04-24T07:58:58.193Z,37.69
2024-04-24T07:59:58.596Z,37.68
2024-04-24T08:00:58.129Z,37.61
2024-04-24T08:01:58.211Z,37.44
2024-04-24T08:02:58.112Z,37.27
2024-04-24T08:03:58.119Z,37.19
2024-04-24T08:04:58.186Z,37.01
2024-04-24T08:05:58.475Z,36.79
2024-04-24T08:06:58.117Z,36.42
2024-04-24T08:07:58.119Z,36.24
2024-04-24T08:08:58.029Z,36.20
2024-04-24T08:09:58.104Z,36.28
2024-04-24T08:10:58.423Z,36.44
2024-04-24T08:11:58.072Z,36.58
2024-04-24T08:12:57.993Z,36.65
2024-04-24T08:13:58.008Z,36.65
2024-04-24T08:14:57.993Z,36.61
2024-04-24T08:15:57.998Z,36.58
2024-04-24T08:16:58.408Z,36.53
2024-04-24T08:17:58.102Z,36.44
2024-04-24T08:18:57.889Z,36.36
2024-04-24T08:19:57.968Z,36.27
2024-04-24T08:20:57.900Z,36.21
2024-04-24T08:21:58.280Z,36.24
2024-04-24T08:22:57.900Z,36.32
2024-04-24T08:23:57.884Z,36.46
2024-04-24T08:24:57.866Z,36.58
2024-04-24T08:25:57.851Z,36.66
2024-04-24T08:26:57.823Z,36.66
2024-04-24T08:27:58.217Z,36.41
2024-04-24T08:28:57.809Z,35.94
2024-04-24T08:29:59.786Z,35.56
2024-04-24T08:30:57.771Z,35.21
2024-04-24T08:31:57.747Z,34.92
2024-04-24T08:32:57.822Z,34.66
2024-04-24T08:33:58.185Z,34.44
2024-04-24T08:34:57.784Z,34.29
2024-04-24T08:35:57.742Z,34.16
2024-04-24T08:36:57.683Z,34.10
2024-04-24T08:37:57.667Z,34.20
2024-04-24T08:38:57.656Z,34.29
2024-04-24T08:39:58.088Z,34.16
2024-04-24T08:40:57.747Z,34.27
2024-04-24T08:42:00.157Z,34.46
2024-04-24T08:42:57.646Z,34.44
2024-04-24T08:43:57.599Z,34.40
2024-04-24T08:44:57.672Z,34.41
2024-04-24T08:45:57.989Z,34.50
2024-04-24T08:46:57.641Z,34.72
2024-04-24T08:47:57.616Z,35.03
2024-04-24T08:48:57.681Z,35.26
2024-04-24T08:49:57.506Z,35.39
2024-04-24T08:50:58.446Z,35.54
2024-04-24T08:51:57.955Z,35.75
2024-04-24T08:52:57.488Z,35.94
2024-04-24T08:53:57.476Z,36.02
2024-04-24T08:54:57.455Z,36.02
2024-04-24T08:55:57.446Z,36.00
2024-04-24T08:56:57.465Z,36.04
2024-04-24T08:57:57.815Z,36.14
2024-04-24T08:58:57.438Z,36.26
2024-04-24T08:59:57.359Z,36.25
2024-04-24T09:00:57.353Z,36.22
2024-04-24T09:01:57.410Z,36.18
2024-04-24T09:02:57.472Z,36.18
2024-04-24T09:03:57.964Z,36.27
2024-04-24T09:04:57.484Z,36.34
2024-04-24T09:05:57.296Z,36.31
2024-04-24T09:06:59.511Z,36.12
2024-04-24T09:07:58.253Z,35.93
2024-04-24T09:08:57.737Z,35.72
2024-04-24T09:09:57.648Z,35.52
2024-04-24T09:10:57.350Z,35.28
2024-04-24T09:11:57.326Z,35.01
2024-04-24T09:12:57.247Z,34.74
2024-04-24T09:13:57.233Z,34.63
2024-04-24T09:14:57.587Z,34.49
2024-04-24T09:15:57.164Z,34.42
2024-04-24T09:16:57.371Z,34.34
2024-04-24T09:17:57.255Z,34.22
2024-04-24T09:18:57.315Z,34.08
2024-04-24T09:19:57.515Z,34.05
2024-04-24T09:20:57.100Z,34.02
2024-04-24T09:21:57.087Z,34.03
2024-04-24T09:22:57.131Z,34.01
2024-04-24T09:23:57.117Z,33.98
2024-04-24T09:24:57.802Z,33.94
2024-04-24T09:25:57.506Z,33.84
2024-04-24T09:26:57.056Z,33.73
2024-04-24T09:27:57.037Z,33.59
2024-04-24T09:28:57.065Z,33.47
2024-04-24T09:29:57.055Z,33.39
2024-04-24T09:30:57.386Z,33.26
2024-04-24T09:31:57.045Z,33.12
2024-04-24T09:32:57.109Z,33.13
2024-04-24T09:33:57.012Z,33.16
2024-04-24T09:34:57.023Z,33.22
2024-04-24T09:35:56.939Z,33.32
2024-04-24T09:36:57.381Z,33.45
2024-04-24T09:37:56.930Z,33.58
2024-04-24T09:38:56.855Z,33.59
2024-04-24T09:39:56.904Z,33.55
2024-04-24T09:40:56.934Z,33.41
2024-04-24T09:41:57.253Z,33.19
2024-04-24T09:42:56.854Z,32.97
2024-04-24T09:43:56.858Z,32.72
2024-04-24T09:44:56.862Z,32.53
2024-04-24T09:45:56.799Z,32.41
2024-04-24T09:46:56.857Z,32.32
2024-04-24T09:47:57.290Z,32.32
2024-04-24T09:48:56.977Z,32.33
2024-04-24T09:49:56.735Z,32.38
2024-04-24T09:50:56.736Z,32.49
2024-04-24T09:51:56.706Z,32.67
2024-04-24T09:52:57.163Z,32.86
2024-04-24T09:53:56.650Z,33.01
2024-04-24T09:54:56.662Z,33.10
2024-04-24T09:55:56.640Z,33.08
2024-04-24T09:56:56.667Z,32.98
2024-04-24T09:57:56.674Z,32.83
2024-04-24T09:58:57.057Z,32.70
2024-04-24T09:59:56.586Z,32.60
2024-04-24T10:00:56.635Z,32.47
2024-04-24T10:01:56.686Z,32.34
2024-04-24T10:02:56.584Z,32.25
2024-04-24T10:03:57.069Z,32.20
2024-04-24T10:04:56.556Z,32.12
2024-04-24T10:05:57.606Z,32.04
2024-04-24T10:06:56.578Z,31.97
2024-04-24T10:07:56.572Z,31.99
2024-04-24T10:08:56.624Z,32.02
2024-04-24T10:09:56.894Z,32.08
2024-04-24T10:10:56.492Z,32.17
2024-04-24T10:11:56.583Z,32.12
2024-04-24T10:12:56.457Z,32.02
2024-04-24T10:13:56.479Z,31.94
2024-04-24T10:14:56.468Z,31.88
2024-04-24T10:15:56.808Z,31.81
2024-04-24T10:16:56.460Z,31.66
2024-04-24T10:17:56.457Z,31.57
2024-04-24T10:18:56.569Z,31.64
2024-04-24T10:20:02.730Z,31.69
2024-04-24T10:20:59.449Z,31.64
2024-04-24T10:21:56.717Z,31.49
2024-04-24T10:22:56.379Z,31.49
2024-04-24T10:23:56.322Z,31.45
2024-04-24T10:24:56.323Z,31.36
2024-04-24T10:25:56.264Z,31.30
2024-04-24T10:26:56.287Z,31.29
2024-04-24T10:27:56.672Z,31.31
2024-04-24T10:28:56.312Z,31.36
2024-04-24T10:29:56.288Z,31.29
2024-04-24T10:30:56.176Z,31.34
2024-04-24T10:31:56.520Z,31.45
2024-04-24T10:32:56.444Z,31.55
2024-04-24T10:33:56.909Z,31.63
2024-04-24T10:34:56.303Z,31.70
2024-04-24T10:35:56.164Z,31.78
2024-04-24T10:36:56.205Z,31.81
2024-04-24T10:37:56.315Z,31.83
2024-04-24T10:38:56.517Z,31.92
2024-04-24T10:39:56.234Z,32.11
2024-04-24T10:40:56.103Z,32.39
2024-04-24T10:41:56.064Z,32.60
2024-04-24T10:42:56.260Z,32.75
2024-04-24T10:43:56.475Z,32.81
2024-04-24T10:44:56.048Z,32.76
2024-04-24T10:45:55.999Z,32.82
2024-04-24T10:46:56.046Z,32.98
2024-04-24T10:47:56.051Z,33.19
2024-04-24T10:48:56.004Z,33.39
2024-04-24T10:49:56.643Z,33.59
2024-04-24T10:50:58.168Z,33.72
2024-04-24T10:51:55.999Z,33.81
2024-04-24T10:52:56.047Z,33.88
2024-04-24T10:53:58.407Z,33.91
2024-04-24T10:54:55.888Z,33.89
2024-04-24T10:55:56.433Z,33.91
2024-04-24T10:56:55.878Z,33.96
2024-04-24T10:57:55.910Z,34.08
2024-04-24T10:58:55.889Z,34.25
2024-04-24T10:59:55.842Z,34.47
2024-04-24T11:00:55.807Z,34.66
2024-04-24T11:01:56.235Z,34.78
2024-04-24T11:02:59.383Z,34.85
2024-04-24T11:03:57.478Z,34.85
2024-04-24T11:04:55.801Z,34.84
2024-04-24T11:05:55.810Z,34.85
2024-04-24T11:06:55.792Z,34.88
2024-04-24T11:07:56.172Z,34.94
2024-04-24T11:08:55.680Z,34.97
2024-04-24T11:09:55.690Z,34.87
2024-04-24T11:10:55.774Z,34.74
2024-04-24T11:11:55.738Z,34.64
2024-04-24T11:12:55.667Z,34.54
2024-04-24T11:13:56.105Z,34.43
2024-04-24T11:14:55.655Z,34.40
2024-04-24T11:16:01.998Z,34.41
2024-04-24T11:16:57.295Z,34.43
2024-04-24T11:17:55.856Z,34.46
2024-04-24T11:18:55.683Z,34.50
2024-04-24T11:19:56.136Z,34.62
2024-04-24T11:20:55.571Z,34.83
2024-04-24T11:21:55.544Z,35.07
2024-04-24T11:22:55.555Z,35.28
2024-04-24T11:23:55.565Z,35.51
2024-04-24T11:24:55.552Z,35.74
2024-04-24T11:25:59.737Z,35.92
2024-04-24T11:26:55.445Z,36.04
2024-04-24T11:27:55.420Z,36.11
2024-04-24T11:28:55.479Z,36.08
2024-04-24T11:29:55.487Z,36.07
2024-04-24T11:30:55.931Z,36.07
2024-04-24T11:31:55.448Z,36.03
2024-04-24T11:32:55.502Z,36.02
2024-04-24T11:33:55.461Z,35.95
2024-04-24T11:34:55.453Z,35.73
2024-04-24T11:35:55.411Z,35.41
2024-04-24T11:36:55.765Z,35.04
2024-04-24T11:37:55.319Z,34.60
2024-04-24T11:38:55.286Z,34.08
2024-04-24T11:39:55.406Z,33.74
2024-04-24T11:40:55.356Z,33.51
2024-04-24T11:41:55.728Z,32.91
2024-04-24T11:42:55.354Z,32.29
2024-04-24T11:43:55.260Z,31.46
2024-04-24T11:44:55.252Z,30.91
2024-04-24T11:45:55.223Z,30.76
2024-04-24T11:46:55.648Z,30.48
2024-04-24T11:47:55.302Z,30.27
2024-04-24T11:48:55.244Z,30.42
2024-04-24T11:49:55.365Z,30.36
2024-04-24T11:50:55.224Z,30.17
2024-04-24T11:51:55.115Z,29.52
2024-04-24T11:52:55.726Z,28.02
2024-04-24T11:53:55.113Z,27.56
2024-04-24T11:54:55.154Z,27.78
2024-04-24T11:55:55.120Z,28.44
2024-04-24T11:56:55.071Z,29.05
2024-04-24T11:57:55.574Z,29.67
2024-04-24T11:58:55.161Z,30.27
2024-04-24T11:59:55.223Z,30.90
2024-04-24T12:00:55.063Z,31.51
2024-04-24T12:01:55.058Z,32.19
2024-04-24T12:02:55.487Z,32.77
2024-04-24T12:03:55.028Z,33.20
2024-04-24T12:04:55.051Z,33.53
2024-04-24T12:05:55.060Z,33.71
2024-04-24T12:06:54.935Z,33.72
2024-04-24T12:07:54.932Z,33.71
2024-04-24T12:08:55.368Z,33.78
2024-04-24T12:09:54.982Z,33.93
2024-04-24T12:10:54.893Z,34.08
2024-04-24T12:11:54.941Z,34.36
2024-04-24T12:12:54.881Z,34.69
2024-04-24T12:13:55.355Z,35.00
2024-04-24T12:14:54.838Z,35.21
2024-04-24T12:15:54.934Z,35.30
2024-04-24T12:16:54.832Z,35.39
2024-04-24T12:17:54.885Z,35.46
2024-04-24T12:18:55.204Z,35.53
2024-04-24T12:19:54.811Z,35.60
2024-04-24T12:20:54.786Z,35.69
2024-04-24T12:21:54.813Z,35.83
2024-04-24T12:22:54.792Z,35.97
2024-04-24T12:23:54.692Z,36.13
2024-04-24T12:24:55.134Z,36.29
2024-04-24T12:25:54.810Z,36.36
2024-04-24T12:26:54.667Z,36.46
2024-04-24T12:27:54.688Z,36.51
2024-04-24T12:28:54.679Z,36.49
2024-04-24T12:29:54.696Z,36.38
2024-04-24T12:30:56.434Z,36.26
2024-04-24T12:31:54.723Z,36.11
2024-04-24T12:32:54.791Z,35.82
2024-04-24T12:33:54.705Z,35.40
2024-04-24T12:34:54.640Z,34.90
2024-04-24T12:35:54.597Z,34.55
2024-04-24T12:36:54.994Z,34.27
2024-04-24T12:37:54.604Z,34.15
2024-04-24T12:38:54.527Z,34.00
2024-04-24T12:39:54.649Z,33.87
2024-04-24T12:40:54.533Z,33.91
2024-04-24T12:41:55.021Z,34.08
2024-04-24T12:42:54.512Z,34.32
2024-04-24T12:43:54.579Z,34.55
2024-04-24T12:44:54.433Z,34.76
2024-04-24T12:45:54.418Z,34.98
2024-04-24T12:46:54.574Z,35.24
2024-04-24T12:47:54.896Z,35.48
2024-04-24T12:48:54.640Z,35.74
2024-04-24T12:49:54.413Z,36.03
2024-04-24T12:50:54.396Z,36.35
2024-04-24T12:51:54.436Z,36.68
2024-04-24T12:52:54.791Z,36.98
2024-04-24T12:53:54.541Z,37.21
2024-04-24T12:54:54.301Z,37.20
2024-04-24T12:55:54.364Z,37.01
2024-04-24T12:56:54.322Z,36.89
2024-04-24T12:57:54.301Z,36.72
2024-04-24T12:58:54.723Z,36.52
2024-04-24T12:59:54.293Z,36.32